Whitehall, NY

6:32 PM EST on February 06, 2016 (GMT -0500)
South Bay | | Change Station
CLOSE
Current Station
Personal Weather Station
Location: Whitehall, NY
Elevation: 131 ft
Nearby Weather Stations

Elev 131 ft 43.57 °N, 73.43 °W | Updated 0 second ago

Mostly Cloudy
Mostly Cloudy
35.3 °F
Feels Like 31 °F
N
5.0
Wind Variable Wind from WSW
Gusts 13.0 mph

Today
High -- | Low -- °F
--% Chance of Precip.
Yesterday
High -- | Low -- °F
Precip. -- in
Pressure 30.21 in
Visibility 10.0 miles
Clouds Clear
Windchill 31 °F
Dew Point 25 °F
Humidity 66%
Rainfall 0.00 in
Snow Depth Not available.
7:04 AM 5:11 PM
Waning Crescent, 4% visible
METAR KGFL 062253Z AUTO 23004KT 10SM CLR 03/M08 A3018 RMK AO2 SLP229 T00281078
Pressure 30.21 in
Visibility 10.0 miles
Clouds Clear
Windchill 31 °F
Dew Point 25 °F
Humidity 66%
Rainfall 0.00 in
Snow Depth Not available.
7:04 AM 5:11 PM
Waning Crescent, 4% visible
METAR KGFL 062253Z AUTO 23004KT 10SM CLR 03/M08 A3018 RMK AO2 SLP229 T00281078

10-Day Weather Forecast

Almanac

Astronomy

Feb. 06, 2016 Rise Set
Actual Time
Civil Twilight
Nautical Twilight
Astronomical Twilight
Moon
Length of Visible Light
Length of Day
Tomorrow will be .
, % of the Moon is Illuminated

Today's Extremes

State Highs State Lows

Community

WunderPhotos

Upload Photos

1,891,098 photos uploaded!

WunderBlog® & News

Nearby

Air Quality

  Air Quality AQ Index Pollutant
Not available.

Snow Depth

Station Depth Elevation

Earthquake Activity

City Distance Mag. Time & Date
Minimum magnitude displayed is 2.5.

Coastal Water Temperatures

Place Temperature

Stations

Nearby Weather Stations

Station Location Temp. Windchill Dew Point Humidity Wind Precip. Elev Updated Type
                   

Watches & Warnings

There are currently no watches in effect.